Terminal Aerodrome Forecast
Issued by NWS Cleveland, OH

Home | Current Version | Previous Version | Text Only | Print | Product List | Glossary On
Versions: 1 2 3 4 5 6 7 8 9 10 11 12 13 14 15 16 17 18 19 20 21 22 23 24 25 26
000
FTUS41 KCLE 210500 CCA
TAFYNG
TAF COR
KYNG 210540Z 2106/2206 24006KT 5SM -DZ BR BKN007 OVC015
      TEMPO 2106/2110 2SM -DZ BR BKN005
     FM211000 30008KT 3SM -DZ BKN005 OVC015
     FM211600 31011KT 5SM BR VCSH SCT008 OVC015
     FM212000 33010G16KT 6SM HZ VCSH OVC018
     FM220200 34008KT 5SM BR VCSH OVC015=

USA.gov is the U.S. government's official web portal to all federal, state and local government web resources and services.